createdAt,value
2018-03-18T00:01:26.363Z,13.60
2018-03-18T00:03:53.913Z,13.60
2018-03-18T00:06:21.475Z,13.50
2018-03-18T00:08:49.057Z,13.50
2018-03-18T00:11:16.708Z,13.50
2018-03-18T00:13:44.275Z,13.50
2018-03-18T00:16:11.921Z,13.50
2018-03-18T00:18:39.475Z,13.40
2018-03-18T00:21:07.066Z,13.40
2018-03-18T00:23:34.648Z,13.40
2018-03-18T00:26:02.210Z,13.40
2018-03-18T00:28:29.785Z,13.40
2018-03-18T00:30:57.368Z,13.30
2018-03-18T00:33:24.914Z,13.30
2018-03-18T00:35:52.491Z,13.30
2018-03-18T00:38:20.054Z,13.30
2018-03-18T00:40:47.616Z,13.30
2018-03-18T00:43:15.181Z,13.20
2018-03-18T00:45:42.748Z,13.20
2018-03-18T00:48:10.337Z,13.20
2018-03-18T00:50:38.683Z,13.20
2018-03-18T00:53:06.316Z,13.10
2018-03-18T00:55:33.883Z,13.20
2018-03-18T00:58:01.457Z,13.10
2018-03-18T01:00:29.197Z,13.10
2018-03-18T01:02:57.532Z,13.10
2018-03-18T01:05:25.101Z,13.00
2018-03-18T01:07:52.666Z,13.00
2018-03-18T01:10:20.231Z,13.00
2018-03-18T01:12:47.961Z,13.00
2018-03-18T01:15:15.518Z,13.00
2018-03-18T01:17:43.079Z,12.90
2018-03-18T01:20:11.429Z,12.90
2018-03-18T01:22:39.127Z,12.90
2018-03-18T01:25:07.481Z,12.90
2018-03-18T01:27:35.043Z,12.90
2018-03-18T01:30:02.652Z,12.90
2018-03-18T01:32:30.996Z,12.90
2018-03-18T01:34:58.564Z,12.80
2018-03-18T01:37:26.320Z,12.80
2018-03-18T01:39:53.886Z,12.80
2018-03-18T01:42:21.461Z,12.80
2018-03-18T01:44:49.028Z,12.80
2018-03-18T01:47:16.582Z,12.80
2018-03-18T01:49:44.508Z,12.80
2018-03-18T01:52:12.837Z,12.70
2018-03-18T01:54:40.417Z,12.70
2018-03-18T01:57:08.127Z,12.70
2018-03-18T01:59:35.722Z,12.70
2018-03-18T02:02:03.357Z,12.70
2018-03-18T02:04:31.699Z,12.60
2018-03-18T02:06:59.265Z,12.60
2018-03-18T02:09:26.827Z,12.60
2018-03-18T02:11:54.412Z,12.60
2018-03-18T02:14:21.983Z,12.60
2018-03-18T02:16:49.552Z,12.60
2018-03-18T02:19:17.125Z,12.60
2018-03-18T02:21:45.450Z,12.50
2018-03-18T02:24:13.026Z,12.50
2018-03-18T02:26:40.623Z,12.50
2018-03-18T02:29:08.193Z,12.50
2018-03-18T02:31:35.751Z,12.50
2018-03-18T02:34:03.428Z,12.50
2018-03-18T02:36:30.991Z,12.50
2018-03-18T02:38:58.581Z,12.40
2018-03-18T02:41:26.897Z,12.50
2018-03-18T02:43:54.471Z,12.40
2018-03-18T02:46:22.116Z,12.50
2018-03-18T02:48:49.680Z,12.50
2018-03-18T02:51:18.263Z,12.60
2018-03-18T02:53:45.808Z,12.60
2018-03-18T02:56:13.487Z,12.70
2018-03-18T02:58:41.121Z,12.70
2018-03-18T03:01:08.685Z,12.80
2018-03-18T03:03:36.227Z,12.90
2018-03-18T03:06:04.564Z,13.00
2018-03-18T03:08:32.127Z,13.00
2018-03-18T03:10:59.693Z,13.00
2018-03-18T03:13:27.247Z,13.10
2018-03-18T03:15:54.834Z,13.10
2018-03-18T03:18:22.395Z,13.20
2018-03-18T03:20:49.959Z,13.20
2018-03-18T03:23:17.523Z,13.20
2018-03-18T03:25:45.088Z,13.30
2018-03-18T03:28:12.760Z,13.30
2018-03-18T03:30:40.329Z,13.40
2018-03-18T03:33:07.893Z,13.40
2018-03-18T03:35:35.453Z,13.40
2018-03-18T03:38:03.019Z,13.40
2018-03-18T03:40:30.622Z,13.40
2018-03-18T03:42:58.191Z,13.50
2018-03-18T03:45:25.759Z,13.50
2018-03-18T03:47:54.086Z,13.60
2018-03-18T03:50:21.650Z,13.50
2018-03-18T03:52:49.601Z,13.60
2018-03-18T03:55:17.158Z,13.60
2018-03-18T03:57:45.494Z,13.60
2018-03-18T04:00:13.041Z,13.60
2018-03-18T04:02:40.609Z,13.60
2018-03-18T04:05:08.194Z,13.70
2018-03-18T04:07:35.749Z,13.60
2018-03-18T04:10:03.319Z,13.60
2018-03-18T04:12:30.890Z,13.70
2018-03-18T04:14:58.449Z,13.70
2018-03-18T04:17:26.035Z,13.70
2018-03-18T04:19:53.589Z,13.70
2018-03-18T04:22:21.219Z,13.70
2018-03-18T04:24:48.767Z,13.70
2018-03-18T04:27:17.168Z,13.70
2018-03-18T04:29:44.779Z,13.70
2018-03-18T04:32:13.224Z,13.70
2018-03-18T04:34:40.770Z,13.80
2018-03-18T04:37:09.099Z,13.80
2018-03-18T04:39:36.750Z,13.70
2018-03-18T04:42:04.698Z,13.80
2018-03-18T04:44:32.266Z,13.70
2018-03-18T04:46:59.834Z,13.80
2018-03-18T04:49:27.398Z,13.80
2018-03-18T04:51:54.950Z,13.80
2018-03-18T04:54:23.306Z,13.80
2018-03-18T04:56:50.874Z,13.80
2018-03-18T04:59:18.453Z,13.80
2018-03-18T05:01:46.802Z,13.80
2018-03-18T05:04:14.362Z,13.80
2018-03-18T05:06:41.966Z,13.80
2018-03-18T05:09:09.555Z,13.80
2018-03-18T05:11:37.942Z,13.80
2018-03-18T05:14:06.274Z,13.80
2018-03-18T05:16:33.849Z,13.90
2018-03-18T05:19:01.427Z,13.80
2018-03-18T05:21:28.999Z,13.80
2018-03-18T05:23:56.572Z,13.80
2018-03-18T05:26:24.914Z,13.70
2018-03-18T05:28:52.504Z,13.70
2018-03-18T05:31:20.190Z,13.70
2018-03-18T05:33:48.570Z,13.60
2018-03-18T05:36:16.906Z,13.60
2018-03-18T05:38:44.469Z,13.60
2018-03-18T05:41:12.212Z,13.60
2018-03-18T05:43:39.798Z,13.50
2018-03-18T05:46:07.371Z,13.50
2018-03-18T05:48:35.020Z,13.40
2018-03-18T05:51:02.674Z,13.40
2018-03-18T05:53:30.258Z,13.30
2018-03-18T05:55:57.838Z,13.20
2018-03-18T05:58:25.449Z,13.20
2018-03-18T06:00:53.038Z,13.20
2018-03-18T06:03:21.378Z,13.10
2018-03-18T06:05:49.018Z,13.00
2018-03-18T06:08:16.707Z,13.00
2018-03-18T06:10:44.272Z,12.90
2018-03-18T06:13:11.825Z,12.90
2018-03-18T06:15:39.389Z,12.90
2018-03-18T06:18:06.954Z,12.80
2018-03-18T06:20:34.532Z,12.80
2018-03-18T06:23:02.095Z,12.80
2018-03-18T06:25:29.836Z,12.70
2018-03-18T06:27:57.406Z,12.70
2018-03-18T06:30:24.981Z,12.70
2018-03-18T06:32:52.563Z,12.60
2018-03-18T06:35:20.144Z,12.60
2018-03-18T06:37:47.879Z,12.60
2018-03-18T06:40:15.438Z,12.60
2018-03-18T06:42:43.004Z,12.50
2018-03-18T06:45:10.583Z,12.50
2018-03-18T06:47:38.234Z,12.50
2018-03-18T06:50:05.804Z,12.50
2018-03-18T06:52:33.371Z,12.40
2018-03-18T06:55:00.937Z,12.40
2018-03-18T06:57:28.546Z,12.40
2018-03-18T06:59:56.109Z,12.40
2018-03-18T07:02:23.742Z,12.40
2018-03-18T07:04:51.312Z,12.30
2018-03-18T07:07:18.900Z,12.30
2018-03-18T07:09:46.938Z,12.30
2018-03-18T07:12:14.500Z,12.40
2018-03-18T07:14:42.059Z,12.40
2018-03-18T07:17:10.384Z,12.40
2018-03-18T07:19:37.953Z,12.40
2018-03-18T07:22:05.535Z,12.50
2018-03-18T07:24:33.082Z,12.50
2018-03-18T07:27:00.667Z,12.60
2018-03-18T07:29:28.247Z,12.80
2018-03-18T07:31:55.841Z,12.90
2018-03-18T07:34:23.422Z,13.00
2018-03-18T07:36:51.005Z,13.20
2018-03-18T07:39:18.708Z,13.30
2018-03-18T07:41:46.240Z,13.40
2018-03-18T07:44:13.881Z,13.50
2018-03-18T07:46:41.428Z,13.70
2018-03-18T07:49:09.769Z,13.90
2018-03-18T07:51:37.353Z,13.90
2018-03-18T07:54:04.929Z,14.00
2018-03-18T07:56:32.514Z,14.10
2018-03-18T07:59:00.876Z,14.30
2018-03-18T08:01:28.438Z,14.30
2018-03-18T08:03:56.774Z,14.50
2018-03-18T08:06:24.359Z,14.50
2018-03-18T08:08:51.933Z,14.50
2018-03-18T08:11:19.591Z,14.60
2018-03-18T08:13:47.203Z,14.70
2018-03-18T08:16:14.795Z,14.70
2018-03-18T08:18:42.355Z,14.80
2018-03-18T08:21:09.917Z,14.80
2018-03-18T08:23:37.517Z,14.90
2018-03-18T08:26:05.096Z,14.90
2018-03-18T08:28:32.765Z,15.00
2018-03-18T08:31:00.382Z,15.00
2018-03-18T08:33:27.986Z,15.10
2018-03-18T08:35:55.638Z,15.10
2018-03-18T08:38:23.925Z,15.20
2018-03-18T08:40:51.506Z,15.20
2018-03-18T08:43:19.086Z,15.30
2018-03-18T08:45:46.838Z,15.30
2018-03-18T08:48:14.539Z,15.40
2018-03-18T08:50:42.094Z,15.40
2018-03-18T08:53:09.705Z,15.40
2018-03-18T08:55:38.041Z,15.50
2018-03-18T08:58:05.596Z,15.50
2018-03-18T09:00:33.171Z,15.50
2018-03-18T09:03:01.316Z,15.50
2018-03-18T09:05:28.881Z,15.60
2018-03-18T09:07:56.458Z,15.60
2018-03-18T09:10:24.137Z,15.60
2018-03-18T09:12:51.720Z,15.70
2018-03-18T09:15:19.289Z,15.70
2018-03-18T09:17:46.900Z,15.70
2018-03-18T09:20:14.429Z,15.80
2018-03-18T09:22:41.985Z,15.80
2018-03-18T09:25:09.573Z,15.80
2018-03-18T09:27:37.924Z,15.90
2018-03-18T09:30:05.502Z,15.90
2018-03-18T09:32:33.168Z,15.90
2018-03-18T09:35:00.850Z,15.90
2018-03-18T09:37:28.486Z,16.00
2018-03-18T09:39:56.057Z,16.00
2018-03-18T09:42:23.660Z,16.00
2018-03-18T09:44:51.990Z,16.10
2018-03-18T09:47:19.590Z,16.10
2018-03-18T09:49:47.178Z,16.10
2018-03-18T09:52:15.502Z,16.10
2018-03-18T09:54:43.101Z,16.20
2018-03-18T09:57:10.657Z,16.20
2018-03-18T09:59:38.364Z,16.20
2018-03-18T10:02:06.887Z,16.30
2018-03-18T10:04:34.490Z,16.30
2018-03-18T10:07:02.100Z,16.30
2018-03-18T10:09:29.701Z,16.30
2018-03-18T10:11:57.279Z,16.40
2018-03-18T10:14:26.180Z,16.40
2018-03-18T10:16:54.686Z,16.40
2018-03-18T10:19:22.284Z,16.40
2018-03-18T10:21:49.868Z,16.30
2018-03-18T10:24:19.538Z,16.30
2018-03-18T10:26:48.125Z,16.30
2018-03-18T10:29:16.456Z,16.30
2018-03-18T10:31:44.037Z,16.30
2018-03-18T10:34:11.608Z,16.30
2018-03-18T10:36:39.188Z,16.20
2018-03-18T10:39:06.787Z,16.20
2018-03-18T10:41:35.137Z,16.10
2018-03-18T10:44:02.700Z,16.10
2018-03-18T10:46:30.272Z,16.10
2018-03-18T10:48:57.843Z,16.10
2018-03-18T10:51:25.444Z,16.20
2018-03-18T10:53:53.022Z,16.20
2018-03-18T10:56:20.587Z,16.20
2018-03-18T10:58:48.156Z,16.30
2018-03-18T11:01:21.273Z,16.30
2018-03-18T11:03:54.405Z,16.40
2018-03-18T11:06:21.961Z,16.40
2018-03-18T11:08:49.875Z,16.40
2018-03-18T11:11:17.475Z,16.40
2018-03-18T11:13:45.061Z,16.40
2018-03-18T11:16:12.630Z,16.50
2018-03-18T11:18:40.218Z,16.50
2018-03-18T11:21:08.564Z,16.50
2018-03-18T11:23:36.125Z,16.50
2018-03-18T11:26:03.707Z,16.60
2018-03-18T11:28:31.307Z,16.60
2018-03-18T11:30:59.655Z,16.60
2018-03-18T11:33:27.259Z,16.60
2018-03-18T11:35:55.600Z,16.70
2018-03-18T11:38:23.252Z,16.60
2018-03-18T11:40:50.839Z,16.60
2018-03-18T11:43:18.417Z,16.60
2018-03-18T11:45:46.059Z,16.70
2018-03-18T11:48:13.673Z,16.70
2018-03-18T11:50:42.003Z,16.70
2018-03-18T11:53:09.587Z,16.60
2018-03-18T11:55:37.232Z,16.60
2018-03-18T11:58:05.604Z,16.70
2018-03-18T12:00:33.185Z,16.70
2018-03-18T12:03:00.923Z,16.80
2018-03-18T12:05:28.556Z,16.80
2018-03-18T12:07:56.126Z,16.80
2018-03-18T12:10:24.506Z,16.80
2018-03-18T12:12:52.084Z,16.80
2018-03-18T12:15:20.414Z,16.80
2018-03-18T12:17:47.983Z,16.80
2018-03-18T12:20:15.624Z,16.80
2018-03-18T12:22:43.307Z,16.80
2018-03-18T12:25:10.884Z,16.80
2018-03-18T12:27:38.493Z,16.80
2018-03-18T12:30:06.849Z,16.60
2018-03-18T12:32:34.419Z,16.60
2018-03-18T12:35:02.001Z,16.60
2018-03-18T12:37:29.563Z,16.50
2018-03-18T12:40:08.961Z,16.40
2018-03-18T12:42:48.310Z,16.30
2018-03-18T12:45:15.895Z,16.20
2018-03-18T12:47:43.506Z,16.10
2018-03-18T12:50:11.107Z,16.10
2018-03-18T12:52:38.693Z,16.10
2018-03-18T12:55:06.256Z,16.10
2018-03-18T12:57:34.016Z,16.20
2018-03-18T13:00:01.580Z,16.20
2018-03-18T13:02:29.146Z,16.30
2018-03-18T13:04:56.889Z,16.30
2018-03-18T13:07:24.439Z,16.30
2018-03-18T13:09:52.028Z,16.40
2018-03-18T13:12:19.588Z,16.50
2018-03-18T13:14:47.171Z,16.50
2018-03-18T13:17:14.756Z,16.60
2018-03-18T13:19:42.345Z,16.60
2018-03-18T13:22:10.710Z,16.70
2018-03-18T13:24:38.311Z,16.60
2018-03-18T13:27:06.659Z,16.70
2018-03-18T13:29:35.737Z,16.70
2018-03-18T13:32:03.344Z,16.70
2018-03-18T13:34:31.883Z,16.70
2018-03-18T13:36:59.638Z,16.70
2018-03-18T13:39:27.187Z,16.60
2018-03-18T13:41:54.769Z,16.70
2018-03-18T13:44:22.358Z,16.70
2018-03-18T13:46:50.075Z,16.70
2018-03-18T13:49:18.423Z,16.80
2018-03-18T13:51:45.983Z,16.70
2018-03-18T13:54:13.570Z,16.80
2018-03-18T13:56:41.757Z,16.80
2018-03-18T13:59:09.401Z,16.80
2018-03-18T14:01:36.970Z,16.80
2018-03-18T14:04:04.538Z,16.80
2018-03-18T14:06:32.366Z,16.80
2018-03-18T14:08:59.939Z,16.90
2018-03-18T14:11:27.541Z,16.90
2018-03-18T14:13:55.112Z,17.00
2018-03-18T14:16:22.691Z,17.00
2018-03-18T14:18:50.258Z,17.00
2018-03-18T14:21:17.823Z,17.00
2018-03-18T14:23:45.426Z,17.00
2018-03-18T14:26:12.991Z,17.10
2018-03-18T14:28:40.591Z,17.10
2018-03-18T14:31:08.160Z,17.10
2018-03-18T14:33:35.756Z,17.10
2018-03-18T14:36:03.583Z,17.10
2018-03-18T14:38:31.149Z,17.10
2018-03-18T14:40:58.746Z,17.00
2018-03-18T14:43:26.327Z,17.00
2018-03-18T14:45:53.917Z,17.00
2018-03-18T14:48:21.703Z,16.90
2018-03-18T14:50:49.281Z,16.90
2018-03-18T14:53:16.869Z,16.80
2018-03-18T14:55:44.460Z,16.80
2018-03-18T14:58:12.045Z,16.70
2018-03-18T15:00:40.392Z,16.50
2018-03-18T15:03:08.153Z,16.50
2018-03-18T15:05:35.758Z,16.50
2018-03-18T15:08:04.111Z,16.50
2018-03-18T15:10:31.697Z,16.50
2018-03-18T15:12:59.422Z,16.50
2018-03-18T15:15:26.995Z,16.50
2018-03-18T15:17:54.582Z,16.50
2018-03-18T15:20:22.165Z,16.50
2018-03-18T15:22:49.901Z,16.50
2018-03-18T15:25:17.639Z,16.50
2018-03-18T15:27:45.231Z,16.50
2018-03-18T15:30:12.827Z,16.50
2018-03-18T15:32:40.506Z,16.50
2018-03-18T15:35:09.006Z,16.60
2018-03-18T15:37:37.375Z,16.60
2018-03-18T15:40:05.011Z,16.60
2018-03-18T15:42:32.592Z,16.60
2018-03-18T15:45:00.150Z,16.60
2018-03-18T15:47:27.779Z,16.60
2018-03-18T15:49:55.508Z,16.60
2018-03-18T15:52:23.090Z,16.60
2018-03-18T15:54:51.438Z,16.60
2018-03-18T15:57:19.027Z,16.60
2018-03-18T15:59:46.668Z,16.60
2018-03-18T16:02:14.441Z,16.60
2018-03-18T16:04:42.038Z,16.70
2018-03-18T16:07:09.617Z,16.70
2018-03-18T16:09:37.979Z,16.70
2018-03-18T16:12:05.596Z,16.70
2018-03-18T16:14:33.209Z,16.80
2018-03-18T16:17:00.810Z,16.80
2018-03-18T16:19:29.157Z,16.80
2018-03-18T16:21:56.775Z,16.80
2018-03-18T16:24:24.344Z,16.80
2018-03-18T16:26:51.937Z,16.80
2018-03-18T16:29:31.469Z,16.80
2018-03-18T16:31:59.174Z,16.80
2018-03-18T16:34:26.780Z,16.80
2018-03-18T16:36:54.428Z,16.80
2018-03-18T16:39:22.787Z,16.80
2018-03-18T16:41:50.357Z,16.80
2018-03-18T16:44:17.968Z,16.80
2018-03-18T16:46:45.594Z,16.80
2018-03-18T16:49:13.167Z,16.80
2018-03-18T16:51:41.590Z,16.80
2018-03-18T16:54:09.297Z,16.80
2018-03-18T16:56:36.939Z,16.80
2018-03-18T16:59:04.597Z,16.80
2018-03-18T17:01:32.214Z,16.80
2018-03-18T17:04:00.600Z,16.80
2018-03-18T17:06:28.291Z,16.70
2018-03-18T17:08:55.885Z,16.70
2018-03-18T17:11:23.481Z,16.60
2018-03-18T17:13:51.130Z,16.50
2018-03-18T17:16:18.859Z,16.50
2018-03-18T17:18:47.628Z,16.30
2018-03-18T17:21:15.285Z,16.30
2018-03-18T17:23:43.309Z,16.30
2018-03-18T17:26:11.095Z,16.20
2018-03-18T17:28:38.817Z,16.20
2018-03-18T17:31:06.393Z,16.20
2018-03-18T17:33:34.788Z,16.30
2018-03-18T17:36:04.418Z,16.30
2018-03-18T17:38:32.076Z,16.30
2018-03-18T17:41:00.618Z,16.30
2018-03-18T17:43:28.287Z,16.30
2018-03-18T17:46:07.584Z,16.30
2018-03-18T17:48:46.943Z,16.40
2018-03-18T17:51:26.382Z,16.40
2018-03-18T17:54:05.930Z,16.50
2018-03-18T17:56:36.125Z,16.50
2018-03-18T17:59:03.824Z,16.50
2018-03-18T18:01:31.666Z,16.60
2018-03-18T18:03:59.421Z,16.50
2018-03-18T18:06:27.103Z,16.60
2018-03-18T18:08:54.782Z,16.60
2018-03-18T18:11:22.876Z,16.60
2018-03-18T18:13:50.588Z,16.60
2018-03-18T18:16:21.036Z,16.50
2018-03-18T18:18:48.876Z,16.50
2018-03-18T18:21:16.597Z,16.50
2018-03-18T18:23:44.575Z,16.50
2018-03-18T18:26:12.439Z,16.50
2018-03-18T18:28:40.207Z,16.50
2018-03-18T18:31:07.984Z,16.50
2018-03-18T18:33:35.726Z,16.50
2018-03-18T18:36:03.627Z,16.50
2018-03-18T18:38:31.477Z,16.50
2018-03-18T18:41:00.176Z,16.60
2018-03-18T18:43:28.190Z,16.70
2018-03-18T18:45:55.899Z,16.80
2018-03-18T18:48:24.354Z,16.80
2018-03-18T18:50:52.277Z,16.80
2018-03-18T18:53:19.916Z,16.80
2018-03-18T18:55:48.579Z,16.80
2018-03-18T18:58:16.204Z,16.80
2018-03-18T19:00:43.811Z,16.80
2018-03-18T19:03:11.516Z,16.70
2018-03-18T19:05:39.922Z,16.70
2018-03-18T19:08:10.888Z,16.70
2018-03-18T19:10:38.659Z,16.70
2018-03-18T19:13:06.465Z,16.80
2018-03-18T19:15:34.098Z,16.80
2018-03-18T19:18:01.862Z,16.80
2018-03-18T19:20:30.151Z,16.70
2018-03-18T19:22:57.839Z,16.70
2018-03-18T19:25:26.015Z,16.70
2018-03-18T19:27:54.240Z,16.60
2018-03-18T19:30:21.886Z,16.60
2018-03-18T19:32:49.586Z,16.50
2018-03-18T19:35:17.238Z,16.50
2018-03-18T19:37:45.610Z,16.40
2018-03-18T19:40:14.886Z,16.40
2018-03-18T19:42:43.028Z,16.40
2018-03-18T19:45:11.006Z,16.30
2018-03-18T19:47:38.656Z,16.30
2018-03-18T19:50:07.144Z,16.30
2018-03-18T19:52:35.537Z,16.30
2018-03-18T19:55:03.233Z,16.30
2018-03-18T19:57:31.227Z,16.40
2018-03-18T20:00:02.550Z,16.40
2018-03-18T20:02:30.435Z,16.40
2018-03-18T20:04:58.310Z,16.40
2018-03-18T20:07:26.088Z,16.50
2018-03-18T20:09:53.897Z,16.50
2018-03-18T20:12:21.820Z,16.50
2018-03-18T20:14:49.664Z,16.60
2018-03-18T20:17:17.570Z,16.60
2018-03-18T20:19:45.394Z,16.60
2018-03-18T20:22:13.866Z,16.70
2018-03-18T20:24:41.606Z,16.70
2018-03-18T20:27:09.268Z,16.70
2018-03-18T20:29:37.545Z,16.70
2018-03-18T20:32:05.229Z,16.70
2018-03-18T20:34:32.854Z,16.70
2018-03-18T20:37:00.605Z,16.80
2018-03-18T20:39:29.054Z,16.80
2018-03-18T20:41:56.769Z,16.80
2018-03-18T20:44:25.145Z,16.80
2018-03-18T20:46:53.539Z,16.70
2018-03-18T20:49:21.905Z,16.70
2018-03-18T20:51:49.519Z,16.70
2018-03-18T20:54:17.212Z,16.60
2018-03-18T20:56:44.869Z,16.60
2018-03-18T20:59:12.473Z,16.50
2018-03-18T21:01:40.855Z,16.40
2018-03-18T21:04:08.454Z,16.40
2018-03-18T21:06:36.073Z,16.30
2018-03-18T21:09:03.652Z,16.20
2018-03-18T21:11:31.236Z,16.20
2018-03-18T21:13:59.614Z,16.00
2018-03-18T21:16:27.963Z,15.90
2018-03-18T21:18:55.671Z,15.90
2018-03-18T21:21:23.975Z,15.80
2018-03-18T21:23:51.565Z,15.80
2018-03-18T21:26:19.148Z,15.70
2018-03-18T21:28:46.891Z,15.70
2018-03-18T21:31:14.503Z,15.60
2018-03-18T21:33:42.844Z,15.50
2018-03-18T21:36:10.427Z,15.50
2018-03-18T21:38:37.994Z,15.40
2018-03-18T21:41:05.578Z,15.40
2018-03-18T21:43:33.199Z,15.30
2018-03-18T21:46:00.760Z,15.20
2018-03-18T21:48:28.516Z,15.20
2018-03-18T21:50:56.095Z,15.10
2018-03-18T21:53:23.693Z,15.00
2018-03-18T21:55:51.271Z,15.00
2018-03-18T21:58:18.847Z,14.90
2018-03-18T22:00:46.424Z,14.90
2018-03-18T22:03:14.012Z,14.80
2018-03-18T22:05:42.342Z,14.70
2018-03-18T22:08:09.932Z,14.70
2018-03-18T22:10:37.506Z,14.70
2018-03-18T22:13:05.101Z,14.60
2018-03-18T22:15:32.743Z,14.60
2018-03-18T22:18:01.105Z,14.50
2018-03-18T22:20:28.709Z,14.50
2018-03-18T22:22:57.047Z,14.40
2018-03-18T22:25:24.606Z,14.40
2018-03-18T22:27:52.201Z,14.40
2018-03-18T22:30:19.775Z,14.40
2018-03-18T22:32:47.420Z,14.30
2018-03-18T22:35:14.997Z,14.30
2018-03-18T22:37:44.067Z,14.20
2018-03-18T22:40:11.631Z,14.20
2018-03-18T22:42:39.206Z,14.20
2018-03-18T22:45:06.806Z,14.10
2018-03-18T22:47:35.131Z,14.10
2018-03-18T22:50:02.854Z,14.10
2018-03-18T22:52:30.405Z,14.10
2018-03-18T22:54:57.974Z,14.00
2018-03-18T22:57:25.569Z,14.00
2018-03-18T22:59:53.924Z,14.00
2018-03-18T23:02:21.491Z,13.90
2018-03-18T23:04:49.050Z,13.90
2018-03-18T23:07:16.649Z,13.90
2018-03-18T23:09:45.001Z,13.90
2018-03-18T23:12:12.577Z,13.80
2018-03-18T23:14:40.140Z,13.80
2018-03-18T23:17:07.726Z,13.80
2018-03-18T23:19:36.052Z,13.70
2018-03-18T23:22:03.749Z,13.70
2018-03-18T23:24:31.318Z,13.70
2018-03-18T23:26:59.652Z,13.70
2018-03-18T23:29:27.418Z,13.60
2018-03-18T23:31:55.011Z,13.60
2018-03-18T23:34:22.588Z,13.60
2018-03-18T23:36:50.182Z,13.60
2018-03-18T23:39:17.754Z,13.60
2018-03-18T23:41:46.113Z,13.50
2018-03-18T23:44:13.682Z,13.50
2018-03-18T23:46:41.595Z,13.50
2018-03-18T23:49:10.046Z,13.40
2018-03-18T23:51:37.616Z,13.50
2018-03-18T23:54:05.175Z,13.40
2018-03-18T23:56:32.748Z,13.40
2018-03-18T23:59:00.529Z,13.40
